Anatoly Samochkin — UALD — position and weather

sailwx.info

Track history (hours):
 
Tides and Currents Weather Stations Pressure Air Temp Water Temp Dewpoint Dewpoint Depression Visibility Wind Speed Wind Dir Waves Ship Positions

Anatoly Samochkin

Last reported at 2017-Oct-19 16:28 UTC. Time now 2017-Oct-22 23:01 UTC.
Position N 45°30' E 036°44'.

Type: Tug. MMSI: 273448160.

Date/timePositionNaut miles runAvg speedWind from/ knotsBaromVisibWave heightAir tempDewpointWater temp
2017-Oct-19 16:28N 45°30' E 036°44'3 6.5
2017-Oct-19 16:00N 45°28' E 036°42'3 6.4
2017-Oct-19 15:30N 45°25' E 036°41'3 6.6
2017-Oct-19 15:00N 45°22' E 036°40'4 7.1
2017-Oct-19 14:30N 45°20' E 036°35'4 7.1
2017-Oct-19 14:00N 45°19' E 036°31'3 6.0
2017-Oct-19 13:30N 45°16' E 036°29'2 4.1
2017-Oct-19 13:00N 45°14' E 036°30'2 0.5
2017-Oct-19 07:46N 45°11' E 036°31'1 3.8
2017-Oct-19 07:27N 45°10' E 036°31'1 3.1
2017-Oct-19 07:00N 45°09' E 036°32'1 1.5
2017-Oct-19 06:20N 45°09' E 036°33'0 0.0
2017-Oct-19 05:59N 45°09' E 036°33'0 0.0
2017-Oct-19 05:14N 45°09' E 036°33'0 0.0
2017-Oct-19 04:59N 45°09' E 036°33'0 0.0
2017-Oct-19 04:29N 45°09' E 036°33'0 0.0
2017-Oct-18 16:47N 45°10' E 036°33'0 0.0
2017-Oct-18 16:25N 45°10' E 036°33'0 0.0
2017-Oct-18 14:34N 45°10' E 036°33'0 0.0
2017-Oct-18 12:40N 45°10' E 036°33'0 0.0
2017-Oct-18 12:28N 45°10' E 036°33'0 0.0
2017-Oct-18 11:52N 45°10' E 036°33'3 1.3
2017-Oct-18 09:28N 45°11' E 036°29'2 4.1
2017-Oct-18 08:58N 45°13' E 036°28'2 4.8
2017-Oct-18 08:29N 45°15' E 036°28'3 4.8
2017-Oct-18 07:53N 45°18' E 036°29'2 5.6
2017-Oct-18 07:30N 45°19' E 036°32'3 5.8
2017-Oct-18 07:00N 45°20' E 036°36'3 5.5
2017-Oct-18 06:31N 45°21' E 036°39'3 5.4
2017-Oct-18 06:01N 45°24' E 036°40'3 5.1
2017-Oct-18 05:31N 45°26' E 036°38'  
2017-Oct-15 19:42N 45°27' E 036°32'10 0.5
2017-Oct-14 23:35N 45°35' E 036°42'  
Track history (hours):
 
Tides and Currents Weather Stations Pressure Air Temp Water Temp Dewpoint Dewpoint Depression Visibility Wind Speed Wind Dir Waves Ship Positions

Anatoly Samochkin

Last reported at 2017-Oct-19 16:28 UTC. Time now 2017-Oct-22 23:01 UTC.
Position N 45°30' E 036°44'.

Type: Tug. MMSI: 273448160.

Date/timePositionNaut miles runAvg speedWind from/ knotsBaromVisibWave heightAir tempDewpointWater temp
2017-Oct-19 16:28N 45°30' E 036°44'3 6.5
2017-Oct-19 16:00N 45°28' E 036°42'3 6.4
2017-Oct-19 15:30N 45°25' E 036°41'3 6.6
2017-Oct-19 15:00N 45°22' E 036°40'4 7.1
2017-Oct-19 14:30N 45°20' E 036°35'4 7.1
2017-Oct-19 14:00N 45°19' E 036°31'3 6.0
2017-Oct-19 13:30N 45°16' E 036°29'2 4.1
2017-Oct-19 13:00N 45°14' E 036°30'2 0.5
2017-Oct-19 07:46N 45°11' E 036°31'1 3.8
2017-Oct-19 07:27N 45°10' E 036°31'1 3.1
2017-Oct-19 07:00N 45°09' E 036°32'1 1.5
2017-Oct-19 06:20N 45°09' E 036°33'0 0.0
2017-Oct-19 05:59N 45°09' E 036°33'0 0.0
2017-Oct-19 05:14N 45°09' E 036°33'0 0.0
2017-Oct-19 04:59N 45°09' E 036°33'0 0.0
2017-Oct-19 04:29N 45°09' E 036°33'0 0.0
2017-Oct-18 16:47N 45°10' E 036°33'0 0.0
2017-Oct-18 16:25N 45°10' E 036°33'0 0.0
2017-Oct-18 14:34N 45°10' E 036°33'0 0.0
2017-Oct-18 12:40N 45°10' E 036°33'0 0.0
2017-Oct-18 12:28N 45°10' E 036°33'0 0.0
2017-Oct-18 11:52N 45°10' E 036°33'3 1.3
2017-Oct-18 09:28N 45°11' E 036°29'2 4.1
2017-Oct-18 08:58N 45°13' E 036°28'2 4.8
2017-Oct-18 08:29N 45°15' E 036°28'3 4.8
2017-Oct-18 07:53N 45°18' E 036°29'2 5.6
2017-Oct-18 07:30N 45°19' E 036°32'3 5.8
2017-Oct-18 07:00N 45°20' E 036°36'3 5.5
2017-Oct-18 06:31N 45°21' E 036°39'3 5.4
2017-Oct-18 06:01N 45°24' E 036°40'3 5.1
2017-Oct-18 05:31N 45°26' E 036°38'  
2017-Oct-15 19:42N 45°27' E 036°32'10 0.5
2017-Oct-14 23:35N 45°35' E 036°42'  

Dump ship's entire track history